• Join FlightAware (Why Join?)
  • Login
  • US Flag 
12:12AM EDT


 

Airport Tracker/Info


-or-


 

Live Flight TrackerFlight Track Log ✈ LYM613 ✈ 23-Sep-2013 ✈ KRKS - KAPA

Flight Track Log - Related Links

Times and Time Zones

All times are in EDT time to prevent confusion due to time zone crossing. See the LYM613 flight status page for this flight to view local times or setup timezone preferences in your user account.

Time Position Orientation Groundspeed Altitude Reporting Facility
EDT Latitude Longitude Course Direction KTS MPH feet Rate Location/Type
08:42AM 41.6536 -109.0786 North 250 288 11,100  Level Denver Center
08:43AM 41.6439 -108.9819 98° East 279 321 14,500 3,000 Climbing Salt Lake Center
08:44AM 41.3063 -108.4290 114° Southeast  Level Estimated
08:44AM 41.5992 -108.8658 117° Southeast 310 357 17,300  Level Salt Lake Center
08:45AM 41.2579 -108.3235 116° Southeast  Level Estimated
08:45AM 41.5644 -108.7533 112° Southeast 335 386 19,600  Level Salt Lake Center
08:46AM 41.2095 -108.2182 116° Southeast  Level Estimated
08:46AM 41.5244 -108.6397 115° Southeast 348 400 21,800  Level Salt Lake Center
08:47AM 41.4853 -108.5250 114° Southeast 352 405 24,000 2,100 Climbing Salt Lake Center
08:48AM 41.4381 -108.3911 115° Southeast 357 411 26,100 1,920 Climbing Salt Lake Center
08:49AM 41.3967 -108.2703 115° Southeast 367 422 27,900 1,800 Climbing Denver Center
08:50AM 41.3569 -108.1572 115° Southeast 356 410 29,800 1,500 Climbing Denver Center
08:51AM 41.3097 -108.0242 115° Southeast 355 409 31,000 540 Climbing Denver Center
08:52AM 41.2669 -107.9031 115° Southeast 370 426 31,000  Level Denver Center
08:53AM 41.2233 -107.7786 115° Southeast 384 442 31,000  Level Denver Center
08:54AM 41.1722 -107.6383 116° Southeast 381 438 31,100  Climbing Denver Center
08:55AM 41.1300 -107.5189 115° Southeast 375 432 31,000 -60 Descending Denver Center
08:56AM 41.0808 -107.3828 116° Southeast 369 425 31,000  Level Denver Center
08:57AM 41.0383 -107.2669 116° Southeast 367 422 31,000  Level Denver Center
08:58AM 40.9978 -107.1503 115° Southeast 366 421 31,000  Level Denver Center
08:59AM 40.9472 -107.0153 116° Southeast 366 421 31,000  Level Denver Center
09:00AM 40.9047 -106.8986 116° Southeast 366 421 31,000  Level Denver Center
09:01AM 40.8631 -106.7831 115° Southeast 366 421 31,000  Level Denver Center
09:02AM 40.8125 -106.6472 116° Southeast 368 423 31,000  Level Denver Center
09:03AM 40.7694 -106.5306 116° Southeast 370 426 31,000  Level Denver Center
09:04AM 40.7261 -106.4122 116° Southeast 372 428 31,000  Level Denver Center
09:05AM 40.6761 -106.2778 116° Southeast 369 425 31,000 -300 Level Denver Center
09:06AM 40.6325 -106.1619 116° Southeast 368 423 30,400 -1,200 Descending Denver Center
09:07AM 40.5889 -106.0456 116° Southeast 362 417 28,600 -1,800 Descending Denver Center
09:08AM 40.5444 -105.9311 117° Southeast 356 410 26,800 -1,860 Descending Denver Center
09:09AM 40.5014 -105.8142 116° Southeast 355 409 24,900 -1,920 Descending Denver Center
09:10AM 40.4553 -105.6975 117° Southeast 358 412 23,000 -1,920 Descending Denver Center
09:11AM 40.4106 -105.5792 116° Southeast 362 417 21,000 -1,920 Descending Denver Center
09:12AM 40.3617 -105.4569 118° Southeast 359 413 19,100 -2,040 Descending Denver Center
09:13AM 40.2822 -105.3453 133° Southeast 387 445 16,900 -1,740 Descending Denver Center
09:14AM 40.2067 -105.2578 138° Southeast 367 422 15,700 -1,680 Descending Denver Center
09:15AM 40.1097 -105.1981 155° Southeast 391 450 13,500 -2,040 Descending Denver Center
09:16AM 40.0161 -105.1372 154° Southeast 382 440 11,600 -1,680 Descending Denver Center
09:17AM 39.9322 -105.0853 155° Southeast 341 392 10,100 -1,260 Descending Denver Center
09:18AM 39.8506 -105.0336 154° Southeast 308 354 9,100 -600 Descending Denver Center
09:19AM 39.7728 -104.9850 154° Southeast 310 357 8,900 -240 Descending Denver Center
09:20AM 39.6947 -104.9417 157° South 301 346 8,700 -300 Descending Denver Center
09:22AM 39.6175 -104.9244 170° South 284 327 8,300 -420 Descending Denver Center
09:23AM 39.5347 -104.9186 177° South 273 314 7,900 -480 Descending Denver Center
09:24AM 39.4950 -104.8711 137° Southeast 223 257 7,400 -660 Descending Denver Center
09:25AM 39.5269 -104.8486 29° Northeast 138 159 6,600 -780 Descending Denver Center
09:26AM 39.5614 -104.8503 358° North 127 146 5,900 -720 Descending Denver Center
09:28AM 39.5667 -104.8333 North  Level FlightAware Approximate
09:35AM 39.5701 -104.8493 North  Level Estimated